createdAt,value
2019-05-28T00:00:16.363Z,19.35
2019-05-28T00:02:45.663Z,16.62
2019-05-28T00:05:15.503Z,16.87
2019-05-28T00:07:44.790Z,15.55
2019-05-28T00:10:14.570Z,16.65
2019-05-28T00:12:43.841Z,17.85
2019-05-28T00:15:13.779Z,15.65
2019-05-28T00:17:43.067Z,16.02
2019-05-28T00:20:13.604Z,13.68
2019-05-28T00:22:43.191Z,13.95
2019-05-28T00:25:12.830Z,16.55
2019-05-28T00:27:42.134Z,14.05
2019-05-28T00:30:19.639Z,14.85
2019-05-28T00:32:42.974Z,15.72
2019-05-28T00:35:14.498Z,14.95
2019-05-28T00:37:43.799Z,15.28
2019-05-28T00:40:13.424Z,16.57
2019-05-28T00:42:42.726Z,16.20
2019-05-28T00:45:12.658Z,15.43
2019-05-28T00:47:42.251Z,13.83
2019-05-28T00:50:12.685Z,14.93
2019-05-28T00:52:41.984Z,14.90
2019-05-28T00:55:13.627Z,13.45
2019-05-28T00:57:45.944Z,14.25
2019-05-28T01:00:17.147Z,13.30
2019-05-28T01:02:46.759Z,12.35
2019-05-28T01:05:16.139Z,14.15
2019-05-28T01:07:45.427Z,13.10
2019-05-28T01:10:15.109Z,14.00
2019-05-28T01:12:44.390Z,15.00
2019-05-28T01:15:13.899Z,16.95
2019-05-28T01:17:43.199Z,16.52
2019-05-28T01:20:12.930Z,15.72
2019-05-28T01:22:42.221Z,17.02
2019-05-28T01:25:11.523Z,12.80
2019-05-28T01:27:40.811Z,13.32
2019-05-28T01:30:11.107Z,13.65
2019-05-28T01:32:40.391Z,12.43
2019-05-28T01:35:09.763Z,13.88
2019-05-28T01:37:39.315Z,13.08
2019-05-28T01:40:09.360Z,15.35
2019-05-28T01:42:38.944Z,13.28
2019-05-28T01:45:08.775Z,14.20
2019-05-28T01:47:38.362Z,16.62
2019-05-28T01:50:08.407Z,12.78
2019-05-28T01:52:37.706Z,12.93
2019-05-28T01:55:07.651Z,15.25
2019-05-28T01:57:37.027Z,14.55
2019-05-28T02:00:08.231Z,15.05
2019-05-28T02:02:37.551Z,14.15
2019-05-28T02:05:10.828Z,18.55
2019-05-28T02:07:40.130Z,13.22
2019-05-28T02:10:10.483Z,14.00
2019-05-28T02:12:40.080Z,14.25
2019-05-28T02:15:11.375Z,15.40
2019-05-28T02:17:40.763Z,14.85
2019-05-28T02:20:11.066Z,13.78
2019-05-28T02:22:40.346Z,18.65
2019-05-28T02:25:11.810Z,15.60
2019-05-28T02:27:41.102Z,15.13
2019-05-28T02:30:11.439Z,18.00
2019-05-28T02:32:40.906Z,17.15
2019-05-28T02:35:10.526Z,19.35
2019-05-28T02:37:39.823Z,18.20
2019-05-28T02:40:09.484Z,20.00
2019-05-28T02:42:38.862Z,18.25
2019-05-28T02:45:09.994Z,21.62
2019-05-28T02:47:39.292Z,18.45
2019-05-28T02:50:10.019Z,16.75
2019-05-28T02:52:40.069Z,18.67
2019-05-28T02:55:10.310Z,22.45
2019-05-28T02:57:41.104Z,18.75
2019-05-28T03:00:19.077Z,19.10
2019-05-28T03:02:49.316Z,19.73
2019-05-28T03:05:18.706Z,19.37
2019-05-28T03:07:49.667Z,17.80
2019-05-28T03:11:00.265Z,15.90
2019-05-28T03:13:07.495Z,18.10
2019-05-28T03:15:42.555Z,19.02
2019-05-28T03:18:13.099Z,16.35
2019-05-28T03:20:44.260Z,17.35
2019-05-28T03:23:14.604Z,15.95
2019-05-28T03:25:43.962Z,17.92
2019-05-28T03:28:13.262Z,19.52
2019-05-28T03:30:42.560Z,18.75
2019-05-28T03:33:11.918Z,19.65
2019-05-28T03:35:43.071Z,16.65
2019-05-28T03:38:12.378Z,18.52
2019-05-28T03:40:44.189Z,18.73
2019-05-28T03:43:13.628Z,16.40
2019-05-28T03:45:42.915Z,16.37
2019-05-28T03:48:12.290Z,17.02
2019-05-28T03:50:41.587Z,16.23
2019-05-28T03:53:10.903Z,17.75
2019-05-28T03:55:40.195Z,18.25
2019-05-28T03:58:09.736Z,15.55
2019-05-28T04:00:39.123Z,14.83
2019-05-28T04:03:08.443Z,16.80
2019-05-28T04:05:37.730Z,17.17
2019-05-28T04:08:07.075Z,16.67
2019-05-28T04:10:36.347Z,16.45
2019-05-28T04:13:05.655Z,15.65
2019-05-28T04:15:35.013Z,15.03
2019-05-28T04:18:04.718Z,16.65
2019-05-28T04:20:34.047Z,16.17
2019-05-28T04:23:06.414Z,16.40
2019-05-28T04:25:36.008Z,17.85
2019-05-28T04:28:05.302Z,14.90
2019-05-28T04:30:34.591Z,17.75
2019-05-28T04:33:03.896Z,16.05
2019-05-28T04:35:33.184Z,18.27
2019-05-28T04:38:02.805Z,18.92
2019-05-28T04:40:32.512Z,20.48
2019-05-28T04:43:01.890Z,23.27
2019-05-28T04:45:31.278Z,20.27
2019-05-28T04:48:00.597Z,22.52
2019-05-28T04:50:29.883Z,21.97
2019-05-28T04:52:59.190Z,21.60
2019-05-28T04:55:28.479Z,20.02
2019-05-28T04:57:57.854Z,22.00
2019-05-28T05:00:27.148Z,20.68
2019-05-28T05:03:00.224Z,20.37
2019-05-28T05:05:27.458Z,22.80
2019-05-28T05:07:57.074Z,19.30
2019-05-28T05:10:26.379Z,20.40
2019-05-28T05:12:55.980Z,21.20
2019-05-28T05:15:25.267Z,21.95
2019-05-28T05:17:54.574Z,20.05
2019-05-28T05:20:23.855Z,21.90
2019-05-28T05:22:53.492Z,21.87
2019-05-28T05:25:22.784Z,21.02
2019-05-28T05:27:52.146Z,21.50
2019-05-28T05:30:21.422Z,20.72
2019-05-28T05:32:50.741Z,20.57
2019-05-28T05:35:20.340Z,22.85
2019-05-28T05:37:49.630Z,21.02
2019-05-28T05:40:19.376Z,21.48
2019-05-28T05:42:48.919Z,18.95
2019-05-28T05:45:18.523Z,19.10
2019-05-28T05:47:47.823Z,19.20
2019-05-28T05:50:17.548Z,21.73
2019-05-28T05:52:46.857Z,20.45
2019-05-28T05:55:16.294Z,22.58
2019-05-28T05:57:45.655Z,19.10
2019-05-28T06:00:16.083Z,17.57
2019-05-28T06:02:45.388Z,15.75
2019-05-28T06:05:14.854Z,15.95
2019-05-28T06:07:44.472Z,18.15
2019-05-28T06:10:14.039Z,15.60
2019-05-28T06:12:43.323Z,14.80
2019-05-28T06:15:12.643Z,15.68
2019-05-28T06:17:41.950Z,16.55
2019-05-28T06:20:11.695Z,18.00
2019-05-28T06:22:40.982Z,16.00
2019-05-28T06:25:10.525Z,16.23
2019-05-28T06:27:39.810Z,17.12
2019-05-28T06:30:09.487Z,20.08
2019-05-28T06:32:38.919Z,17.25
2019-05-28T06:35:08.735Z,15.85
2019-05-28T06:37:38.037Z,13.68
2019-05-28T06:40:08.513Z,17.37
2019-05-28T06:42:39.816Z,19.50
2019-05-28T06:45:09.978Z,34.45
2019-05-28T06:47:39.278Z,20.17
2019-05-28T06:50:12.073Z,14.80
2019-05-28T06:52:42.040Z,14.25
2019-05-28T06:55:12.195Z,15.35
2019-05-28T06:57:41.505Z,13.62
2019-05-28T07:00:11.528Z,19.32
2019-05-28T07:02:40.846Z,17.48
2019-05-28T07:05:10.281Z,18.85
2019-05-28T07:07:39.600Z,16.48
2019-05-28T07:10:09.847Z,14.38
2019-05-28T07:12:39.182Z,13.08
2019-05-28T07:15:08.586Z,13.03
2019-05-28T07:17:37.953Z,14.50
2019-05-28T07:20:08.196Z,11.60
2019-05-28T07:22:37.489Z,9.90
2019-05-28T07:25:07.599Z,17.77
2019-05-28T07:27:37.163Z,13.28
2019-05-28T07:30:07.362Z,10.08
2019-05-28T07:32:36.725Z,8.85
2019-05-28T07:35:07.668Z,11.35
2019-05-28T07:37:36.968Z,12.40
2019-05-28T07:40:07.537Z,14.07
2019-05-28T07:42:36.815Z,10.58
2019-05-28T07:45:07.307Z,11.38
2019-05-28T07:47:36.626Z,10.60
2019-05-28T07:50:07.052Z,9.65
2019-05-28T07:52:36.347Z,9.30
2019-05-28T07:55:05.958Z,8.28
2019-05-28T07:57:35.260Z,8.75
2019-05-28T08:00:06.305Z,8.15
2019-05-28T08:02:35.693Z,8.73
2019-05-28T08:05:09.416Z,8.75
2019-05-28T08:07:38.672Z,8.55
2019-05-28T08:10:09.004Z,9.45
2019-05-28T08:12:38.271Z,7.95
2019-05-28T08:15:08.008Z,8.30
2019-05-28T08:17:37.474Z,7.45
2019-05-28T08:20:06.927Z,7.40
2019-05-28T08:22:42.128Z,8.33
2019-05-28T08:25:23.659Z,7.50
2019-05-28T08:27:38.239Z,8.43
2019-05-28T08:30:08.060Z,7.95
2019-05-28T08:32:37.347Z,8.45
2019-05-28T08:35:06.996Z,7.53
2019-05-28T08:37:36.336Z,5.03
2019-05-28T08:40:07.563Z,6.37
2019-05-28T08:42:36.867Z,5.60
2019-05-28T08:45:06.791Z,5.80
2019-05-28T08:47:36.392Z,5.28
2019-05-28T08:50:06.910Z,5.87
2019-05-28T08:52:36.204Z,5.35
2019-05-28T08:55:06.835Z,6.08
2019-05-28T08:57:36.165Z,10.90
2019-05-28T09:00:10.278Z,6.85
2019-05-28T09:02:39.902Z,6.12
2019-05-28T09:05:24.977Z,6.28
2019-05-28T09:07:40.370Z,7.62
2019-05-28T09:10:09.826Z,8.23
2019-05-28T09:12:39.114Z,6.58
2019-05-28T09:15:08.393Z,6.40
2019-05-28T09:17:37.693Z,7.35
2019-05-28T09:20:07.409Z,6.53
2019-05-28T09:22:37.057Z,5.85
2019-05-28T09:25:06.594Z,6.60
2019-05-28T09:27:35.867Z,5.55
2019-05-28T09:30:08.242Z,14.38
2019-05-28T09:32:37.702Z,7.10
2019-05-28T09:35:07.743Z,11.43
2019-05-28T09:37:37.210Z,7.75
2019-05-28T09:40:07.837Z,8.25
2019-05-28T09:42:37.190Z,8.83
2019-05-28T09:45:21.886Z,9.08
2019-05-28T09:47:38.102Z,9.90
2019-05-28T09:50:26.977Z,10.30
2019-05-28T09:52:53.770Z,8.98
2019-05-28T09:55:10.730Z,9.08
2019-05-28T09:57:47.430Z,10.20
2019-05-28T10:00:15.190Z,9.40
2019-05-28T10:02:45.028Z,9.73
2019-05-28T10:05:14.839Z,8.95
2019-05-28T10:07:44.144Z,9.55
2019-05-28T10:10:13.423Z,7.45
2019-05-28T10:12:42.708Z,8.25
2019-05-28T10:15:12.430Z,8.75
2019-05-28T10:17:41.727Z,6.65
2019-05-28T10:20:13.600Z,8.88
2019-05-28T10:22:43.208Z,6.83
2019-05-28T10:25:14.352Z,9.25
2019-05-28T10:27:59.301Z,8.73
2019-05-28T10:30:15.648Z,7.05
2019-05-28T10:32:44.943Z,8.05
2019-05-28T10:35:14.964Z,8.70
2019-05-28T10:37:44.275Z,10.68
2019-05-28T10:40:13.891Z,9.33
2019-05-28T10:42:43.197Z,10.05
2019-05-28T10:45:13.100Z,9.68
2019-05-28T10:47:42.400Z,14.80
2019-05-28T10:50:11.819Z,10.38
2019-05-28T10:52:41.140Z,12.93
2019-05-28T10:55:10.973Z,11.22
2019-05-28T10:57:40.275Z,13.50
2019-05-28T11:00:10.213Z,12.25
2019-05-28T11:02:39.503Z,12.25
2019-05-28T11:05:09.876Z,11.85
2019-05-28T11:07:39.163Z,11.03
2019-05-28T11:10:23.243Z,9.35
2019-05-28T11:12:40.511Z,10.98
2019-05-28T11:15:11.583Z,8.55
2019-05-28T11:17:40.910Z,8.48
2019-05-28T11:20:12.159Z,5.25
2019-05-28T11:22:41.447Z,4.97
2019-05-28T11:25:12.735Z,6.10
2019-05-28T11:27:42.025Z,6.03
2019-05-28T11:30:13.211Z,8.23
2019-05-28T11:32:42.580Z,9.78
2019-05-28T11:35:12.684Z,7.00
2019-05-28T11:37:41.970Z,6.67
2019-05-28T11:40:12.474Z,5.05
2019-05-28T11:42:41.738Z,4.45
2019-05-28T11:45:13.943Z,10.63
2019-05-28T11:47:43.044Z,7.17
2019-05-28T11:50:13.156Z,7.87
2019-05-28T11:52:42.481Z,6.25
2019-05-28T11:55:13.270Z,5.70
2019-05-28T11:57:42.851Z,4.83
2019-05-28T12:00:14.755Z,6.10
2019-05-28T12:02:44.131Z,5.72
2019-05-28T12:05:14.161Z,5.92
2019-05-28T12:07:43.552Z,4.37
2019-05-28T12:10:14.879Z,8.33
2019-05-28T12:12:44.191Z,3.80
2019-05-28T12:15:18.048Z,6.37
2019-05-28T12:17:47.346Z,3.85
2019-05-28T12:20:18.971Z,3.10
2019-05-28T12:22:48.357Z,7.08
2019-05-28T12:25:18.311Z,5.78
2019-05-28T12:27:47.627Z,4.72
2019-05-28T12:30:18.985Z,2.95
2019-05-28T12:32:48.558Z,4.47
2019-05-28T12:35:27.959Z,1.92
2019-05-28T12:37:51.158Z,3.45
2019-05-28T12:40:21.056Z,4.80
2019-05-28T12:42:50.349Z,2.17
2019-05-28T12:45:34.393Z,8.18
2019-05-28T12:48:07.109Z,6.45
2019-05-28T12:50:22.470Z,1.95
2019-05-28T12:52:51.809Z,2.12
2019-05-28T12:55:22.920Z,2.33
2019-05-28T12:57:52.247Z,3.62
2019-05-28T13:00:22.312Z,1.75
2019-05-28T13:02:51.592Z,4.47
2019-05-28T13:05:23.585Z,4.00
2019-05-28T13:08:07.500Z,3.17
2019-05-28T13:10:23.908Z,2.85
2019-05-28T13:12:53.191Z,3.80
2019-05-28T13:15:22.535Z,2.08
2019-05-28T13:17:52.174Z,1.20
2019-05-28T13:20:22.027Z,3.20
2019-05-28T13:22:51.296Z,1.60
2019-05-28T13:25:20.686Z,2.83
2019-05-28T13:27:49.932Z,1.95
2019-05-28T13:30:21.122Z,1.30
2019-05-28T13:32:50.521Z,3.17
2019-05-28T13:35:20.745Z,2.98
2019-05-28T13:37:50.306Z,1.65
2019-05-28T13:40:20.224Z,2.27
2019-05-28T13:42:49.594Z,2.20
2019-05-28T13:45:20.586Z,3.33
2019-05-28T13:47:49.874Z,2.75
2019-05-28T13:50:20.495Z,2.67
2019-05-28T13:52:49.785Z,1.92
2019-05-28T13:55:19.616Z,1.52
2019-05-28T13:57:48.906Z,3.62
2019-05-28T14:00:20.632Z,4.08
2019-05-28T14:02:49.909Z,4.70
2019-05-28T14:05:19.923Z,7.03
2019-05-28T14:07:49.196Z,2.80
2019-05-28T14:10:18.918Z,5.70
2019-05-28T14:12:48.208Z,3.83
2019-05-28T14:15:18.038Z,2.45
2019-05-28T14:17:47.308Z,4.15
2019-05-28T14:20:17.516Z,2.40
2019-05-28T14:22:46.916Z,2.40
2019-05-28T14:25:17.822Z,2.95
2019-05-28T14:27:47.096Z,4.03
2019-05-28T14:30:18.447Z,1.77
2019-05-28T14:32:47.711Z,5.85
2019-05-28T14:35:18.561Z,3.17
2019-05-28T14:37:48.057Z,1.20
2019-05-28T14:40:17.758Z,3.63
2019-05-28T14:42:47.047Z,5.85
2019-05-28T14:45:18.679Z,1.65
2019-05-28T14:47:48.246Z,2.75
2019-05-28T14:50:18.067Z,1.87
2019-05-28T14:52:47.335Z,1.07
2019-05-28T14:55:17.643Z,1.67
2019-05-28T14:57:46.966Z,4.40
2019-05-28T15:00:18.380Z,3.72
2019-05-28T15:02:47.781Z,1.62
2019-05-28T15:05:17.291Z,2.02
2019-05-28T15:07:46.587Z,1.80
2019-05-28T15:10:16.912Z,1.20
2019-05-28T15:12:46.212Z,4.83
2019-05-28T15:15:34.029Z,2.15
2019-05-28T15:17:47.109Z,1.35
2019-05-28T15:20:17.036Z,3.00
2019-05-28T15:22:46.324Z,3.95
2019-05-28T15:25:26.627Z,1.70
2019-05-28T15:27:56.214Z,1.65
2019-05-28T15:30:26.532Z,5.60
2019-05-28T15:32:55.822Z,2.75
2019-05-28T15:35:25.112Z,1.55
2019-05-28T15:37:54.391Z,2.30
2019-05-28T15:40:23.679Z,7.08
2019-05-28T15:43:05.762Z,2.25
2019-05-28T15:45:23.937Z,3.15
2019-05-28T15:47:53.472Z,1.67
2019-05-28T15:50:22.824Z,1.35
2019-05-28T15:52:52.111Z,3.37
2019-05-28T15:55:21.473Z,1.35
2019-05-28T15:57:50.767Z,1.60
2019-05-28T16:00:23.575Z,1.47
2019-05-28T16:02:53.168Z,1.47
2019-05-28T16:05:22.491Z,2.35
2019-05-28T16:07:51.964Z,1.90
2019-05-28T16:10:21.787Z,2.17
2019-05-28T16:12:51.072Z,1.32
2019-05-28T16:15:20.767Z,1.00
2019-05-28T16:17:50.306Z,3.52
2019-05-28T16:20:19.737Z,2.22
2019-05-28T16:22:49.009Z,2.55
2019-05-28T16:25:18.631Z,2.10
2019-05-28T16:27:47.912Z,3.95
2019-05-28T16:30:17.400Z,1.45
2019-05-28T16:32:46.670Z,1.37
2019-05-28T16:35:19.270Z,2.05
2019-05-28T16:37:48.535Z,2.08
2019-05-28T16:40:19.580Z,3.15
2019-05-28T16:42:48.846Z,1.82
2019-05-28T16:45:18.994Z,1.52
2019-05-28T16:47:48.271Z,2.12
2019-05-28T16:50:17.683Z,2.00
2019-05-28T16:52:46.971Z,1.45
2019-05-28T16:55:16.475Z,1.40
2019-05-28T16:57:45.762Z,2.05
2019-05-28T17:00:15.675Z,1.57
2019-05-28T17:02:44.958Z,2.02
2019-05-28T17:05:15.383Z,3.08
2019-05-28T17:07:44.652Z,1.65
2019-05-28T17:10:30.787Z,3.30
2019-05-28T17:12:45.570Z,4.58
2019-05-28T17:15:15.416Z,1.62
2019-05-28T17:17:44.992Z,2.30
2019-05-28T17:20:14.603Z,2.55
2019-05-28T17:22:43.902Z,3.05
2019-05-28T17:25:13.243Z,3.27
2019-05-28T17:27:42.523Z,0.80
2019-05-28T17:30:20.497Z,2.77
2019-05-28T17:32:43.054Z,4.17
2019-05-28T17:35:12.401Z,2.30
2019-05-28T17:37:41.679Z,1.55
2019-05-28T17:40:11.126Z,4.75
2019-05-28T17:42:40.418Z,2.50
2019-05-28T17:45:10.234Z,1.65
2019-05-28T17:47:43.708Z,2.75
2019-05-28T17:50:11.245Z,1.87
2019-05-28T17:52:40.513Z,1.52
2019-05-28T17:55:10.132Z,3.67
2019-05-28T17:57:39.411Z,1.42
2019-05-28T18:00:09.135Z,1.57
2019-05-28T18:02:38.407Z,0.90
2019-05-28T18:05:07.758Z,2.55
2019-05-28T18:07:37.023Z,2.47
2019-05-28T18:10:08.148Z,2.05
2019-05-28T18:12:37.419Z,4.95
2019-05-28T18:15:08.143Z,2.30
2019-05-28T18:17:37.487Z,1.42
2019-05-28T18:20:08.111Z,1.65
2019-05-28T18:22:37.405Z,1.55
2019-05-28T18:25:07.712Z,2.60
2019-05-28T18:27:36.997Z,1.20
2019-05-28T18:30:10.782Z,1.82
2019-05-28T18:32:40.402Z,2.75
2019-05-28T18:35:09.764Z,3.30
2019-05-28T18:37:39.040Z,1.35
2019-05-28T18:40:10.902Z,2.67
2019-05-28T18:42:40.183Z,1.25
2019-05-28T18:45:11.922Z,2.60
2019-05-28T18:47:41.531Z,1.92
2019-05-28T18:50:11.552Z,2.75
2019-05-28T18:52:40.864Z,4.70
2019-05-28T18:55:10.701Z,2.80
2019-05-28T18:57:40.013Z,1.70
2019-05-28T19:00:10.291Z,1.77
2019-05-28T19:02:39.587Z,1.35
2019-05-28T19:05:09.183Z,1.45
2019-05-28T19:07:38.469Z,1.95
2019-05-28T19:10:09.683Z,3.05
2019-05-28T19:12:38.963Z,4.08
2019-05-28T19:15:08.778Z,1.72
2019-05-28T19:17:38.148Z,2.15
2019-05-28T19:20:08.712Z,3.35
2019-05-28T19:22:38.292Z,2.65
2019-05-28T19:25:09.407Z,3.90
2019-05-28T19:27:38.698Z,4.67
2019-05-28T19:30:09.274Z,3.10
2019-05-28T19:32:38.627Z,2.08
2019-05-28T19:35:09.035Z,2.13
2019-05-28T19:37:38.323Z,2.60
2019-05-28T19:40:07.797Z,2.70
2019-05-28T19:42:37.227Z,2.22
2019-05-28T19:45:07.604Z,5.53
2019-05-28T19:47:36.962Z,3.08
2019-05-28T19:50:07.303Z,5.75
2019-05-28T19:52:36.651Z,2.98
2019-05-28T19:55:07.765Z,2.35
2019-05-28T19:57:37.035Z,5.10
2019-05-28T20:00:09.666Z,3.77
2019-05-28T20:02:38.932Z,2.98
2019-05-28T20:05:08.551Z,2.87
2019-05-28T20:07:37.927Z,2.25
2019-05-28T20:10:09.456Z,2.98
2019-05-28T20:12:38.749Z,2.33
2019-05-28T20:15:12.066Z,2.87
2019-05-28T20:17:41.483Z,6.12
2019-05-28T20:20:11.416Z,3.60
2019-05-28T20:22:40.688Z,2.70
2019-05-28T20:25:10.528Z,2.52
2019-05-28T20:27:39.814Z,2.50
2019-05-28T20:30:11.478Z,3.12
2019-05-28T20:32:41.070Z,2.08
2019-05-28T20:35:10.431Z,6.97
2019-05-28T20:37:39.711Z,3.20
2019-05-28T20:40:10.272Z,4.30
2019-05-28T20:42:39.798Z,3.98
2019-05-28T20:45:11.823Z,3.87
2019-05-28T20:47:41.659Z,2.70
2019-05-28T20:50:11.727Z,2.60
2019-05-28T20:52:41.263Z,3.67
2019-05-28T20:55:11.381Z,4.53
2019-05-28T20:57:40.671Z,3.22
2019-05-28T21:00:10.822Z,2.95
2019-05-28T21:02:40.125Z,3.95
2019-05-28T21:05:09.651Z,3.87
2019-05-28T21:07:38.995Z,3.58
2019-05-28T21:10:09.523Z,5.40
2019-05-28T21:12:44.553Z,3.35
2019-05-28T21:15:10.445Z,4.75
2019-05-28T21:17:39.750Z,3.65
2019-05-28T21:20:09.683Z,4.47
2019-05-28T21:22:38.945Z,3.33
2019-05-28T21:25:08.871Z,3.05
2019-05-28T21:27:38.164Z,2.87
2019-05-28T21:30:08.999Z,2.62
2019-05-28T21:32:38.269Z,3.35
2019-05-28T21:35:08.935Z,3.90
2019-05-28T21:37:38.211Z,4.55
2019-05-28T21:40:07.946Z,3.20
2019-05-28T21:42:37.228Z,3.87
2019-05-28T21:45:07.455Z,4.00
2019-05-28T21:47:36.754Z,5.50
2019-05-28T21:50:07.787Z,4.20
2019-05-28T21:52:37.068Z,4.55
2019-05-28T21:55:09.887Z,4.05
2019-05-28T21:57:39.172Z,5.00
2019-05-28T22:00:21.412Z,4.30
2019-05-28T22:02:51.862Z,4.28
2019-05-28T22:05:21.156Z,7.45
2019-05-28T22:07:50.451Z,4.67
2019-05-28T22:10:20.115Z,5.12
2019-05-28T22:12:49.395Z,4.87
2019-05-28T22:15:19.127Z,6.35
2019-05-28T22:17:48.427Z,3.75
2019-05-28T22:20:17.710Z,4.33
2019-05-28T22:22:46.986Z,4.60
2019-05-28T22:25:16.271Z,4.42
2019-05-28T22:27:45.812Z,4.85
2019-05-28T22:30:15.728Z,4.95
2019-05-28T22:32:45.023Z,6.87
2019-05-28T22:35:14.383Z,4.30
2019-05-28T22:37:43.672Z,7.92
2019-05-28T22:40:13.130Z,4.60
2019-05-28T22:42:42.416Z,10.38
2019-05-28T22:45:12.247Z,6.40
2019-05-28T22:47:41.523Z,7.97
2019-05-28T22:50:22.122Z,4.97
2019-05-28T22:52:42.234Z,6.78
2019-05-28T22:55:11.875Z,7.53
2019-05-28T22:57:41.150Z,6.20
2019-05-28T23:00:12.168Z,6.75
2019-05-28T23:02:41.451Z,6.10
2019-05-28T23:05:11.070Z,6.65
2019-05-28T23:07:41.615Z,6.28
2019-05-28T23:10:11.361Z,7.10
2019-05-28T23:12:40.639Z,7.03
2019-05-28T23:15:10.640Z,8.83
2019-05-28T23:17:39.926Z,12.28
2019-05-28T23:20:11.231Z,12.93
2019-05-28T23:22:40.828Z,6.62
2019-05-28T23:25:11.927Z,7.60
2019-05-28T23:27:41.452Z,7.60
2019-05-28T23:30:23.277Z,7.78
2019-05-28T23:32:42.259Z,8.10
2019-05-28T23:35:12.719Z,6.77
2019-05-28T23:37:42.122Z,8.13
2019-05-28T23:40:13.253Z,8.70
2019-05-28T23:42:42.823Z,10.70
2019-05-28T23:45:13.853Z,7.30
2019-05-28T23:47:43.271Z,9.45
2019-05-28T23:50:17.547Z,7.22
2019-05-28T23:52:44.299Z,5.70
2019-05-28T23:55:13.957Z,5.00
2019-05-28T23:57:43.447Z,5.00
